sensor_id;sensor_type;location;lat;lon;timestamp;pressure;altitude;pressure_sealevel;temperature;humidity
10115;BME280;5097;43.260;27.812;2023-04-10T00:00:22;100401.25;;;7.12;60.30
10115;BME280;5097;43.260;27.812;2023-04-10T00:03:06;100389.56;;;6.95;60.42
10115;BME280;5097;43.260;27.812;2023-04-10T00:05:52;100375.06;;;6.83;59.95
10115;BME280;5097;43.260;27.812;2023-04-10T00:08:36;100391.31;;;6.95;60.61
10115;BME280;5097;43.260;27.812;2023-04-10T00:11:20;100383.97;;;6.78;60.55
10115;BME280;5097;43.260;27.812;2023-04-10T00:14:04;100385.22;;;6.94;60.21
10115;BME280;5097;43.260;27.812;2023-04-10T00:16:47;100344.66;;;6.76;59.86
10115;BME280;5097;43.260;27.812;2023-04-10T00:19:31;100382.41;;;6.99;59.95
10115;BME280;5097;43.260;27.812;2023-04-10T00:22:17;100389.56;;;6.95;59.76
10115;BME280;5097;43.260;27.812;2023-04-10T00:25:00;100378.81;;;7.01;59.71
10115;BME280;5097;43.260;27.812;2023-04-10T00:27:44;100378.38;;;7.14;59.45
10115;BME280;5097;43.260;27.812;2023-04-10T00:30:28;100381.06;;;7.12;59.61
10115;BME280;5097;43.260;27.812;2023-04-10T00:33:12;100372.91;;;6.95;59.98
10115;BME280;5097;43.260;27.812;2023-04-10T00:35:56;100362.34;;;6.96;59.62
10115;BME280;5097;43.260;27.812;2023-04-10T00:38:42;100374.84;;;7.15;59.33
10115;BME280;5097;43.260;27.812;2023-04-10T00:41:26;100374.72;;;7.19;58.88
10115;BME280;5097;43.260;27.812;2023-04-10T00:44:10;100380.28;;;7.35;58.33
10115;BME280;5097;43.260;27.812;2023-04-10T00:46:54;100361.03;;;7.10;58.33
10115;BME280;5097;43.260;27.812;2023-04-10T00:49:39;100352.56;;;7.01;58.90
10115;BME280;5097;43.260;27.812;2023-04-10T00:52:25;100351.59;;;7.04;59.04
10115;BME280;5097;43.260;27.812;2023-04-10T00:55:11;100343.00;;;6.99;58.58
10115;BME280;5097;43.260;27.812;2023-04-10T00:57:55;100341.41;;;6.95;58.11
10115;BME280;5097;43.260;27.812;2023-04-10T01:00:40;100344.41;;;7.09;58.75
10115;BME280;5097;43.260;27.812;2023-04-10T01:03:24;100347.09;;;7.08;58.83
10115;BME280;5097;43.260;27.812;2023-04-10T01:06:15;100332.03;;;7.13;58.40
10115;BME280;5097;43.260;27.812;2023-04-10T01:09:05;100306.19;;;7.00;58.54
10115;BME280;5097;43.260;27.812;2023-04-10T01:11:54;100342.69;;;7.08;58.20
10115;BME280;5097;43.260;27.812;2023-04-10T01:14:47;100331.72;;;6.97;58.85
10115;BME280;5097;43.260;27.812;2023-04-10T01:17:38;100327.47;;;6.93;59.04
10115;BME280;5097;43.260;27.812;2023-04-10T01:20:26;100333.38;;;6.99;59.10
10115;BME280;5097;43.260;27.812;2023-04-10T01:23:40;100327.88;;;6.80;59.84
10115;BME280;5097;43.260;27.812;2023-04-10T01:26:38;100305.91;;;6.83;59.33
10115;BME280;5097;43.260;27.812;2023-04-10T01:29:27;100329.78;;;7.02;59.47
10115;BME280;5097;43.260;27.812;2023-04-10T01:32:16;100331.66;;;6.98;59.03
10115;BME280;5097;43.260;27.812;2023-04-10T01:35:05;100330.69;;;7.26;58.75
10115;BME280;5097;43.260;27.812;2023-04-10T01:37:50;100325.81;;;7.39;58.36
10115;BME280;5097;43.260;27.812;2023-04-10T01:40:37;100328.50;;;7.37;58.04
10115;BME280;5097;43.260;27.812;2023-04-10T01:43:26;100300.66;;;7.08;58.19
10115;BME280;5097;43.260;27.812;2023-04-10T01:46:13;100333.63;;;7.17;58.67
10115;BME280;5097;43.260;27.812;2023-04-10T01:49:00;100333.06;;;7.09;58.46
10115;BME280;5097;43.260;27.812;2023-04-10T01:51:45;100329.34;;;6.89;59.40
10115;BME280;5097;43.260;27.812;2023-04-10T01:54:30;100322.13;;;6.96;59.12
10115;BME280;5097;43.260;27.812;2023-04-10T01:57:16;100321.09;;;6.75;59.82
10115;BME280;5097;43.260;27.812;2023-04-10T02:00:08;100278.97;;;6.52;59.63
10115;BME280;5097;43.260;27.812;2023-04-10T02:02:59;100273.59;;;6.56;59.66
10115;BME280;5097;43.260;27.812;2023-04-10T02:05:51;100272.91;;;6.50;59.71
10115;BME280;5097;43.260;27.812;2023-04-10T02:08:39;100276.69;;;6.67;59.46
10115;BME280;5097;43.260;27.812;2023-04-10T02:11:32;100266.19;;;6.68;59.37
10115;BME280;5097;43.260;27.812;2023-04-10T02:14:21;100306.03;;;6.80;59.52
10115;BME280;5097;43.260;27.812;2023-04-10T02:17:08;100258.88;;;6.51;59.89
10115;BME280;5097;43.260;27.812;2023-04-10T02:19:57;100258.00;;;6.51;59.74
10115;BME280;5097;43.260;27.812;2023-04-10T02:22:41;100304.38;;;6.77;60.25
10115;BME280;5097;43.260;27.812;2023-04-10T02:25:26;100262.47;;;6.74;59.54
10115;BME280;5097;43.260;27.812;2023-04-10T02:28:10;100240.25;;;6.59;59.98
10115;BME280;5097;43.260;27.812;2023-04-10T02:30:54;100289.19;;;7.11;60.01
10115;BME280;5097;43.260;27.812;2023-04-10T02:33:38;100283.28;;;7.04;60.03
10115;BME280;5097;43.260;27.812;2023-04-10T02:36:24;100243.22;;;6.74;60.39
10115;BME280;5097;43.260;27.812;2023-04-10T02:39:10;100243.00;;;6.80;60.60
10115;BME280;5097;43.260;27.812;2023-04-10T02:42:02;100261.78;;;6.94;60.75
10115;BME280;5097;43.260;27.812;2023-04-10T02:44:46;100203.38;;;6.62;61.24
10115;BME280;5097;43.260;27.812;2023-04-10T02:47:30;100259.50;;;7.09;60.97
10115;BME280;5097;43.260;27.812;2023-04-10T02:50:14;100290.34;;;7.27;61.33
10115;BME280;5097;43.260;27.812;2023-04-10T02:53:02;100288.06;;;7.42;61.16
10115;BME280;5097;43.260;27.812;2023-04-10T02:55:46;100243.97;;;7.02;61.63
10115;BME280;5097;43.260;27.812;2023-04-10T02:58:30;100283.25;;;7.29;62.01
10115;BME280;5097;43.260;27.812;2023-04-10T03:01:15;100252.75;;;7.01;62.56
10115;BME280;5097;43.260;27.812;2023-04-10T03:04:01;100234.41;;;7.00;62.86
10115;BME280;5097;43.260;27.812;2023-04-10T03:06:51;100286.56;;;7.58;62.39
10115;BME280;5097;43.260;27.812;2023-04-10T03:09:37;100241.09;;;7.32;62.60
10115;BME280;5097;43.260;27.812;2023-04-10T03:12:21;100249.53;;;7.41;62.56
10115;BME280;5097;43.260;27.812;2023-04-10T03:15:06;100239.16;;;7.37;62.82
10115;BME280;5097;43.260;27.812;2023-04-10T03:17:50;100290.53;;;7.46;63.72
10115;BME280;5097;43.260;27.812;2023-04-10T03:20:35;100284.84;;;7.57;63.92
10115;BME280;5097;43.260;27.812;2023-04-10T03:23:19;100285.84;;;7.77;63.48
10115;BME280;5097;43.260;27.812;2023-04-10T03:26:05;100281.25;;;7.82;63.69
10115;BME280;5097;43.260;27.812;2023-04-10T03:28:53;100273.00;;;7.91;63.60
10115;BME280;5097;43.260;27.812;2023-04-10T03:31:37;100257.28;;;7.67;63.84
10115;BME280;5097;43.260;27.812;2023-04-10T03:34:21;100269.16;;;7.78;64.48
10115;BME280;5097;43.260;27.812;2023-04-10T03:37:05;100265.56;;;7.80;64.17
10115;BME280;5097;43.260;27.812;2023-04-10T03:39:49;100263.75;;;7.81;64.17
10115;BME280;5097;43.260;27.812;2023-04-10T03:42:34;100261.69;;;7.67;64.78
10115;BME280;5097;43.260;27.812;2023-04-10T03:45:19;100261.44;;;7.95;64.03
10115;BME280;5097;43.260;27.812;2023-04-10T03:48:03;100249.09;;;7.75;64.95
10115;BME280;5097;43.260;27.812;2023-04-10T03:50:55;100256.31;;;7.70;65.03
10115;BME280;5097;43.260;27.812;2023-04-10T03:53:39;100252.47;;;7.79;65.18
10115;BME280;5097;43.260;27.812;2023-04-10T03:56:28;100255.84;;;7.82;65.06
10115;BME280;5097;43.260;27.812;2023-04-10T03:59:15;100255.09;;;7.79;65.09
10115;BME280;5097;43.260;27.812;2023-04-10T04:01:58;100260.41;;;7.99;64.62
10115;BME280;5097;43.260;27.812;2023-04-10T04:04:42;100265.56;;;7.80;64.75
10115;BME280;5097;43.260;27.812;2023-04-10T04:07:55;100264.63;;;7.81;64.94
10115;BME280;5097;43.260;27.812;2023-04-10T04:10:51;100261.28;;;8.00;64.58
10115;BME280;5097;43.260;27.812;2023-04-10T04:13:51;100274.31;;;8.03;64.27
10115;BME280;5097;43.260;27.812;2023-04-10T04:16:57;100227.56;;;7.65;64.95
10115;BME280;5097;43.260;27.812;2023-04-10T04:19:56;100260.84;;;7.88;64.36
10115;BME280;5097;43.260;27.812;2023-04-10T04:23:00;100239.34;;;7.99;63.95
10115;BME280;5097;43.260;27.812;2023-04-10T04:25:50;100272.47;;;8.05;64.36
10115;BME280;5097;43.260;27.812;2023-04-10T04:28:54;100276.63;;;8.11;64.16
10115;BME280;5097;43.260;27.812;2023-04-10T04:31:57;100276.63;;;8.11;63.99
10115;BME280;5097;43.260;27.812;2023-04-10T04:35:06;100252.50;;;7.99;64.14
10115;BME280;5097;43.260;27.812;2023-04-10T04:38:04;100286.22;;;8.34;63.41
10115;BME280;5097;43.260;27.812;2023-04-10T04:41:14;100292.72;;;8.25;63.44
10115;BME280;5097;43.260;27.812;2023-04-10T04:44:30;100277.56;;;8.30;63.36
10115;BME280;5097;43.260;27.812;2023-04-10T04:47:33;100287.19;;;8.31;63.30
10115;BME280;5097;43.260;27.812;2023-04-10T04:50:34;100277.47;;;8.33;63.35
10115;BME280;5097;43.260;27.812;2023-04-10T04:53:28;100275.38;;;8.42;62.79
10115;BME280;5097;43.260;27.812;2023-04-10T04:56:29;100262.72;;;8.29;62.79
10115;BME280;5097;43.260;27.812;2023-04-10T04:59:21;100252.44;;;8.44;62.73
10115;BME280;5097;43.260;27.812;2023-04-10T05:02:38;100267.72;;;8.58;62.27
10115;BME280;5097;43.260;27.812;2023-04-10T05:05:47;100263.94;;;8.63;62.12
10115;BME280;5097;43.260;27.812;2023-04-10T05:09:00;100236.84;;;8.18;62.38
10115;BME280;5097;43.260;27.812;2023-04-10T05:12:02;100243.03;;;8.60;61.90
10115;BME280;5097;43.260;27.812;2023-04-10T05:15:09;100266.19;;;8.72;61.94
10115;BME280;5097;43.260;27.812;2023-04-10T05:18:13;100273.94;;;8.76;61.62
10115;BME280;5097;43.260;27.812;2023-04-10T05:21:33;100271.97;;;8.81;61.54
10115;BME280;5097;43.260;27.812;2023-04-10T05:24:35;100269.50;;;8.78;61.59
10115;BME280;5097;43.260;27.812;2023-04-10T05:27:25;100275.03;;;8.92;61.18
10115;BME280;5097;43.260;27.812;2023-04-10T05:30:10;100259.88;;;8.77;61.67
10115;BME280;5097;43.260;27.812;2023-04-10T05:32:54;100280.09;;;8.76;61.34
10115;BME280;5097;43.260;27.812;2023-04-10T05:35:51;100242.94;;;8.82;60.95
10115;BME280;5097;43.260;27.812;2023-04-10T05:38:58;100274.47;;;9.04;60.98
10115;BME280;5097;43.260;27.812;2023-04-10T05:42:01;100272.03;;;9.00;60.86
10115;BME280;5097;43.260;27.812;2023-04-10T05:44:58;100278.16;;;9.00;60.96
10115;BME280;5097;43.260;27.812;2023-04-10T05:48:14;100265.34;;;9.12;60.70
10115;BME280;5097;43.260;27.812;2023-04-10T05:51:14;100272.78;;;9.22;60.00
10115;BME280;5097;43.260;27.812;2023-04-10T05:54:29;100249.84;;;9.44;59.40
10115;BME280;5097;43.260;27.812;2023-04-10T05:57:32;100268.97;;;9.49;59.24
10115;BME280;5097;43.260;27.812;2023-04-10T06:00:35;100262.59;;;9.72;58.64
10115;BME280;5097;43.260;27.812;2023-04-10T06:03:52;100264.19;;;9.94;57.73
10115;BME280;5097;43.260;27.812;2023-04-10T06:06:39;100230.72;;;9.77;58.06
10115;BME280;5097;43.260;27.812;2023-04-10T06:09:24;100289.47;;;9.99;57.95
10115;BME280;5097;43.260;27.812;2023-04-10T06:12:08;100283.78;;;10.07;57.63
10115;BME280;5097;43.260;27.812;2023-04-10T06:14:54;100292.59;;;10.07;57.75
10115;BME280;5097;43.260;27.812;2023-04-10T06:17:40;100294.28;;;10.09;57.68
10115;BME280;5097;43.260;27.812;2023-04-10T06:20:25;100292.44;;;10.11;57.52
10115;BME280;5097;43.260;27.812;2023-04-10T06:23:12;100275.03;;;10.06;57.15
10115;BME280;5097;43.260;27.812;2023-04-10T06:25:55;100288.78;;;9.77;58.00
10115;BME280;5097;43.260;27.812;2023-04-10T06:28:39;100287.47;;;9.85;58.22
10115;BME280;5097;43.260;27.812;2023-04-10T06:31:24;100299.00;;;10.02;57.59
10115;BME280;5097;43.260;27.812;2023-04-10T06:34:08;100300.19;;;10.14;57.36
10115;BME280;5097;43.260;27.812;2023-04-10T06:37:00;100308.59;;;10.22;57.19
10115;BME280;5097;43.260;27.812;2023-04-10T06:39:46;100307.03;;;10.37;57.00
10115;BME280;5097;43.260;27.812;2023-04-10T06:42:29;100306.50;;;10.48;56.54
10115;BME280;5097;43.260;27.812;2023-04-10T06:45:20;100275.47;;;10.51;55.94
10115;BME280;5097;43.260;27.812;2023-04-10T06:48:04;100285.66;;;10.77;55.21
10115;BME280;5097;43.260;27.812;2023-04-10T06:50:48;100319.38;;;10.71;55.70
10115;BME280;5097;43.260;27.812;2023-04-10T06:53:32;100281.59;;;10.34;56.20
10115;BME280;5097;43.260;27.812;2023-04-10T06:56:17;100323.06;;;10.86;55.99
10115;BME280;5097;43.260;27.812;2023-04-10T06:59:01;100320.81;;;11.30;55.08
10115;BME280;5097;43.260;27.812;2023-04-10T07:01:45;100316.16;;;10.66;55.87
10115;BME280;5097;43.260;27.812;2023-04-10T07:04:30;100322.41;;;10.99;55.34
10115;BME280;5097;43.260;27.812;2023-04-10T07:07:14;100309.44;;;10.94;54.96
10115;BME280;5097;43.260;27.812;2023-04-10T07:09:59;100318.97;;;11.64;53.60
10115;BME280;5097;43.260;27.812;2023-04-10T07:12:46;100309.97;;;11.34;53.98
10115;BME280;5097;43.260;27.812;2023-04-10T07:15:30;100296.09;;;11.47;53.01
10115;BME280;5097;43.260;27.812;2023-04-10T07:18:13;100285.31;;;11.34;53.34
10115;BME280;5097;43.260;27.812;2023-04-10T07:20:57;100308.59;;;11.77;52.68
10115;BME280;5097;43.260;27.812;2023-04-10T07:23:41;100308.72;;;11.42;53.64
10115;BME280;5097;43.260;27.812;2023-04-10T07:26:25;100271.84;;;11.54;52.91
10115;BME280;5097;43.260;27.812;2023-04-10T07:29:10;100320.56;;;12.16;52.81
10115;BME280;5097;43.260;27.812;2023-04-10T07:31:55;100285.00;;;11.88;51.80
10115;BME280;5097;43.260;27.812;2023-04-10T07:34:40;100303.56;;;12.04;51.77
10115;BME280;5097;43.260;27.812;2023-04-10T07:37:24;100296.28;;;11.76;52.34
10115;BME280;5097;43.260;27.812;2023-04-10T07:40:08;100311.00;;;11.97;52.56
10115;BME280;5097;43.260;27.812;2023-04-10T07:42:53;100315.25;;;11.84;53.43
10115;BME280;5097;43.260;27.812;2023-04-10T07:45:38;100285.88;;;11.72;53.64
10115;BME280;5097;43.260;27.812;2023-04-10T07:48:23;100307.72;;;12.24;53.08
10115;BME280;5097;43.260;27.812;2023-04-10T07:51:07;100309.19;;;12.60;52.63
10115;BME280;5097;43.260;27.812;2023-04-10T07:53:51;100297.50;;;12.48;52.58
10115;BME280;5097;43.260;27.812;2023-04-10T07:56:35;100305.00;;;12.86;51.81
10115;BME280;5097;43.260;27.812;2023-04-10T07:59:19;100295.28;;;13.01;52.12
10115;BME280;5097;43.260;27.812;2023-04-10T08:02:04;100283.75;;;13.17;51.75
10115;BME280;5097;43.260;27.812;2023-04-10T08:04:49;100269.16;;;13.38;50.68
10115;BME280;5097;43.260;27.812;2023-04-10T08:07:33;100288.84;;;13.34;51.04
10115;BME280;5097;43.260;27.812;2023-04-10T08:10:17;100299.78;;;12.99;52.11
10115;BME280;5097;43.260;27.812;2023-04-10T08:13:01;100296.75;;;12.77;52.07
10115;BME280;5097;43.260;27.812;2023-04-10T08:15:45;100286.97;;;13.51;51.17
10115;BME280;5097;43.260;27.812;2023-04-10T08:18:30;100280.25;;;13.87;50.02
10115;BME280;5097;43.260;27.812;2023-04-10T08:21:14;100284.44;;;13.77;50.48
10115;BME280;5097;43.260;27.812;2023-04-10T08:24:01;100286.66;;;13.27;52.06
10115;BME280;5097;43.260;27.812;2023-04-10T08:26:45;100264.56;;;13.69;50.97
10115;BME280;5097;43.260;27.812;2023-04-10T08:29:29;100278.19;;;14.05;50.01
10115;BME280;5097;43.260;27.812;2023-04-10T08:32:12;100280.78;;;14.06;49.39
10115;BME280;5097;43.260;27.812;2023-04-10T08:34:58;100276.16;;;13.54;50.85
10115;BME280;5097;43.260;27.812;2023-04-10T08:37:42;100261.84;;;13.42;51.39
10115;BME280;5097;43.260;27.812;2023-04-10T08:40:36;100272.25;;;13.31;51.61
10115;BME280;5097;43.260;27.812;2023-04-10T08:43:20;100266.56;;;13.51;51.72
10115;BME280;5097;43.260;27.812;2023-04-10T08:46:04;100259.09;;;13.00;52.49
10115;BME280;5097;43.260;27.812;2023-04-10T08:48:52;100282.53;;;12.78;53.83
10115;BME280;5097;43.260;27.812;2023-04-10T08:51:42;100259.75;;;13.04;53.43
10115;BME280;5097;43.260;27.812;2023-04-10T08:54:32;100274.72;;;13.34;52.60
10115;BME280;5097;43.260;27.812;2023-04-10T08:57:16;100267.53;;;13.21;52.98
10115;BME280;5097;43.260;27.812;2023-04-10T09:00:02;100261.00;;;12.98;54.16
10115;BME280;5097;43.260;27.812;2023-04-10T09:03:04;100244.31;;;13.11;53.99
10115;BME280;5097;43.260;27.812;2023-04-10T09:05:50;100251.91;;;13.02;54.52
10115;BME280;5097;43.260;27.812;2023-04-10T09:08:35;100252.06;;;13.14;54.56
10115;BME280;5097;43.260;27.812;2023-04-10T09:11:19;100202.06;;;13.36;54.06
10115;BME280;5097;43.260;27.812;2023-04-10T09:14:19;100229.41;;;13.51;53.53
10115;BME280;5097;43.260;27.812;2023-04-10T09:17:11;100236.28;;;13.41;54.62
10115;BME280;5097;43.260;27.812;2023-04-10T09:19:55;100205.56;;;13.22;54.92
10115;BME280;5097;43.260;27.812;2023-04-10T09:22:39;100225.19;;;13.76;54.23
10115;BME280;5097;43.260;27.812;2023-04-10T09:25:32;100226.31;;;13.01;55.93
10115;BME280;5097;43.260;27.812;2023-04-10T09:28:16;100214.69;;;13.04;56.39
10115;BME280;5097;43.260;27.812;2023-04-10T09:31:00;100210.97;;;12.78;57.45
10115;BME280;5097;43.260;27.812;2023-04-10T09:33:44;100219.88;;;12.91;57.65
10115;BME280;5097;43.260;27.812;2023-04-10T09:36:28;100220.44;;;12.96;57.55
10115;BME280;5097;43.260;27.812;2023-04-10T09:39:12;100218.84;;;12.94;57.73
10115;BME280;5097;43.260;27.812;2023-04-10T09:41:59;100214.38;;;12.80;58.21
10115;BME280;5097;43.260;27.812;2023-04-10T09:44:44;100185.78;;;12.56;58.47
10115;BME280;5097;43.260;27.812;2023-04-10T09:47:28;100202.25;;;13.04;57.94
10115;BME280;5097;43.260;27.812;2023-04-10T09:50:12;100194.75;;;13.54;56.61
10115;BME280;5097;43.260;27.812;2023-04-10T09:52:56;100202.00;;;13.65;56.94
10115;BME280;5097;43.260;27.812;2023-04-10T09:55:40;100186.81;;;13.40;57.11
10115;BME280;5097;43.260;27.812;2023-04-10T09:58:26;100208.91;;;13.95;56.03
10115;BME280;5097;43.260;27.812;2023-04-10T10:01:11;100190.66;;;13.49;56.13
10115;BME280;5097;43.260;27.812;2023-04-10T10:03:56;100158.50;;;12.97;57.25
10115;BME280;5097;43.260;27.812;2023-04-10T10:06:43;100197.22;;;13.43;56.93
10115;BME280;5097;43.260;27.812;2023-04-10T10:09:28;100181.94;;;13.61;57.15
10115;BME280;5097;43.260;27.812;2023-04-10T10:12:15;100172.50;;;13.70;56.66
10115;BME280;5097;43.260;27.812;2023-04-10T10:15:06;100173.75;;;13.37;57.18
10115;BME280;5097;43.260;27.812;2023-04-10T10:17:55;100167.31;;;13.54;57.17
10115;BME280;5097;43.260;27.812;2023-04-10T10:20:43;100186.66;;;13.83;56.48
10115;BME280;5097;43.260;27.812;2023-04-10T10:23:30;100169.47;;;13.89;56.20
10115;BME280;5097;43.260;27.812;2023-04-10T10:26:14;100169.63;;;14.00;55.68
10115;BME280;5097;43.260;27.812;2023-04-10T10:29:02;100174.00;;;13.47;56.77
10115;BME280;5097;43.260;27.812;2023-04-10T10:31:48;100154.41;;;14.02;54.96
10115;BME280;5097;43.260;27.812;2023-04-10T10:34:32;100158.50;;;13.81;55.87
10115;BME280;5097;43.260;27.812;2023-04-10T10:37:18;100159.75;;;14.15;55.33
10115;BME280;5097;43.260;27.812;2023-04-10T10:40:07;100143.94;;;14.14;54.16
10115;BME280;5097;43.260;27.812;2023-04-10T10:42:59;100148.59;;;13.97;53.94
10115;BME280;5097;43.260;27.812;2023-04-10T10:45:51;100130.44;;;14.17;53.61
10115;BME280;5097;43.260;27.812;2023-04-10T10:48:38;100128.75;;;13.75;54.96
10115;BME280;5097;43.260;27.812;2023-04-10T10:51:22;100116.28;;;13.90;54.84
10115;BME280;5097;43.260;27.812;2023-04-10T10:54:26;100127.19;;;13.86;54.68
10115;BME280;5097;43.260;27.812;2023-04-10T10:57:44;100109.84;;;14.59;52.35
10115;BME280;5097;43.260;27.812;2023-04-10T11:01:04;100110.66;;;14.21;52.98
10115;BME280;5097;43.260;27.812;2023-04-10T11:03:53;100117.78;;;14.07;53.17
10115;BME280;5097;43.260;27.812;2023-04-10T11:06:50;100087.94;;;14.04;53.59
10115;BME280;5097;43.260;27.812;2023-04-10T11:09:45;100106.75;;;14.14;52.85
10115;BME280;5097;43.260;27.812;2023-04-10T11:15:55;100076.19;;;14.84;50.94
10115;BME280;5097;43.260;27.812;2023-04-10T11:19:08;100105.13;;;14.88;50.71
10115;BME280;5097;43.260;27.812;2023-04-10T11:22:02;100097.50;;;15.08;50.15
10115;BME280;5097;43.260;27.812;2023-04-10T11:24:54;100095.59;;;15.10;49.86
10115;BME280;5097;43.260;27.812;2023-04-10T11:27:44;100089.50;;;14.84;50.73
10115;BME280;5097;43.260;27.812;2023-04-10T11:30:34;100068.38;;;14.44;51.09
10115;BME280;5097;43.260;27.812;2023-04-10T11:33:18;100089.84;;;14.15;51.61
10115;BME280;5097;43.260;27.812;2023-04-10T11:36:05;100051.28;;;13.96;51.39
10115;BME280;5097;43.260;27.812;2023-04-10T11:38:53;100085.25;;;14.42;51.60
10115;BME280;5097;43.260;27.812;2023-04-10T11:41:39;100077.41;;;14.41;51.50
10115;BME280;5097;43.260;27.812;2023-04-10T11:44:28;100093.88;;;14.72;50.55
10115;BME280;5097;43.260;27.812;2023-04-10T11:47:13;100087.41;;;14.24;51.95
10115;BME280;5097;43.260;27.812;2023-04-10T11:49:58;100075.09;;;14.11;52.00
10115;BME280;5097;43.260;27.812;2023-04-10T11:52:43;100080.19;;;14.14;51.90
10115;BME280;5097;43.260;27.812;2023-04-10T11:55:35;100077.94;;;14.07;52.15
10115;BME280;5097;43.260;27.812;2023-04-10T11:58:21;100076.13;;;13.95;52.64
10115;BME280;5097;43.260;27.812;2023-04-10T12:01:05;100087.19;;;14.15;51.77
10115;BME280;5097;43.260;27.812;2023-04-10T12:03:53;100074.97;;;14.25;51.53
10115;BME280;5097;43.260;27.812;2023-04-10T12:06:38;100077.69;;;13.85;51.55
10115;BME280;5097;43.260;27.812;2023-04-10T12:09:23;100071.03;;;14.18;50.97
10115;BME280;5097;43.260;27.812;2023-04-10T12:12:08;100075.81;;;14.25;50.32
10115;BME280;5097;43.260;27.812;2023-04-10T12:14:52;100052.53;;;14.03;50.00
10115;BME280;5097;43.260;27.812;2023-04-10T12:17:36;100065.50;;;13.95;50.15
10115;BME280;5097;43.260;27.812;2023-04-10T12:20:21;100063.47;;;13.86;50.80
10115;BME280;5097;43.260;27.812;2023-04-10T12:23:08;100006.31;;;13.67;50.27
10115;BME280;5097;43.260;27.812;2023-04-10T12:26:11;100037.78;;;13.99;50.35
10115;BME280;5097;43.260;27.812;2023-04-10T12:28:56;100050.84;;;14.28;50.23
10115;BME280;5097;43.260;27.812;2023-04-10T12:31:40;100053.81;;;14.23;50.47
10115;BME280;5097;43.260;27.812;2023-04-10T12:34:24;100046.59;;;14.64;49.77
10115;BME280;5097;43.260;27.812;2023-04-10T12:37:08;100042.31;;;14.36;50.20
10115;BME280;5097;43.260;27.812;2023-04-10T12:39:52;100041.47;;;14.35;50.40
10115;BME280;5097;43.260;27.812;2023-04-10T12:42:48;100035.41;;;14.96;49.04
10115;BME280;5097;43.260;27.812;2023-04-10T12:45:42;100033.38;;;14.50;48.69
10115;BME280;5097;43.260;27.812;2023-04-10T12:48:26;100034.56;;;14.46;49.16
10115;BME280;5097;43.260;27.812;2023-04-10T12:51:10;100023.94;;;14.46;49.71
10115;BME280;5097;43.260;27.812;2023-04-10T12:53:54;100030.38;;;14.54;48.84
10115;BME280;5097;43.260;27.812;2023-04-10T12:56:41;100001.50;;;14.50;49.39
10115;BME280;5097;43.260;27.812;2023-04-10T12:59:27;100018.94;;;14.67;49.51
10115;BME280;5097;43.260;27.812;2023-04-10T13:02:11;100018.75;;;14.18;50.23
10115;BME280;5097;43.260;27.812;2023-04-10T13:04:55;100013.69;;;14.65;49.13
10115;BME280;5097;43.260;27.812;2023-04-10T13:07:39;99949.75;;;13.80;49.38
10115;BME280;5097;43.260;27.812;2023-04-10T13:10:24;99986.91;;;14.05;49.78
10115;BME280;5097;43.260;27.812;2023-04-10T13:13:08;99983.91;;;14.23;49.49
10115;BME280;5097;43.260;27.812;2023-04-10T13:15:56;99937.41;;;13.79;49.77
10115;BME280;5097;43.260;27.812;2023-04-10T13:18:40;99970.28;;;14.28;48.97
10115;BME280;5097;43.260;27.812;2023-04-10T13:21:23;100003.56;;;14.07;49.28
10115;BME280;5097;43.260;27.812;2023-04-10T13:24:09;99983.44;;;14.29;48.94
10115;BME280;5097;43.260;27.812;2023-04-10T13:26:56;100014.47;;;14.41;48.62
10115;BME280;5097;43.260;27.812;2023-04-10T13:29:42;100007.28;;;14.18;49.17
10115;BME280;5097;43.260;27.812;2023-04-10T13:32:27;100008.03;;;14.20;49.06
10115;BME280;5097;43.260;27.812;2023-04-10T13:35:11;100001.91;;;14.44;48.63
10115;BME280;5097;43.260;27.812;2023-04-10T13:37:56;99948.97;;;13.90;48.34
10115;BME280;5097;43.260;27.812;2023-04-10T13:40:40;100001.97;;;14.18;48.09
10115;BME280;5097;43.260;27.812;2023-04-10T13:43:24;99957.16;;;14.00;48.11
10115;BME280;5097;43.260;27.812;2023-04-10T13:46:08;100000.25;;;14.17;48.21
10115;BME280;5097;43.260;27.812;2023-04-10T13:48:53;99962.88;;;13.94;48.62
10115;BME280;5097;43.260;27.812;2023-04-10T13:51:38;99996.22;;;14.24;48.28
10115;BME280;5097;43.260;27.812;2023-04-10T13:54:22;99962.53;;;14.12;48.37
10115;BME280;5097;43.260;27.812;2023-04-10T13:57:06;99956.84;;;13.92;47.94
10115;BME280;5097;43.260;27.812;2023-04-10T13:59:50;99962.88;;;14.20;47.99
10115;BME280;5097;43.260;27.812;2023-04-10T14:02:34;99988.97;;;14.26;48.66
10115;BME280;5097;43.260;27.812;2023-04-10T14:05:20;99922.97;;;13.70;48.95
10115;BME280;5097;43.260;27.812;2023-04-10T14:08:04;99980.44;;;13.84;49.57
10115;BME280;5097;43.260;27.812;2023-04-10T14:10:48;99948.22;;;14.01;49.14
10115;BME280;5097;43.260;27.812;2023-04-10T14:13:33;99949.50;;;13.70;49.40
10115;BME280;5097;43.260;27.812;2023-04-10T14:16:17;99944.09;;;13.58;50.16
10115;BME280;5097;43.260;27.812;2023-04-10T14:19:01;99934.88;;;13.24;50.80
10115;BME280;5097;43.260;27.812;2023-04-10T14:21:47;99960.34;;;13.67;49.85
10115;BME280;5097;43.260;27.812;2023-04-10T14:24:31;99970.53;;;13.60;50.43
10115;BME280;5097;43.260;27.812;2023-04-10T14:27:15;99935.47;;;13.81;49.48
10115;BME280;5097;43.260;27.812;2023-04-10T14:29:59;99967.78;;;13.74;50.23
10115;BME280;5097;43.260;27.812;2023-04-10T14:32:44;99967.41;;;13.40;50.31
10115;BME280;5097;43.260;27.812;2023-04-10T14:35:28;99977.28;;;13.38;50.14
10115;BME280;5097;43.260;27.812;2023-04-10T14:38:14;99939.00;;;13.15;50.39
10115;BME280;5097;43.260;27.812;2023-04-10T14:40:58;99975.13;;;13.31;50.46
10115;BME280;5097;43.260;27.812;2023-04-10T14:43:42;99957.66;;;13.14;50.98
10115;BME280;5097;43.260;27.812;2023-04-10T14:46:26;99926.09;;;13.23;50.69
10115;BME280;5097;43.260;27.812;2023-04-10T14:49:11;99961.53;;;13.35;51.14